sensor_id;sensor_type;location;lat;lon;timestamp;P1;durP1;ratioP1;P2;durP2;ratioP2
17145;SDS011;8688;54.444;18.444;2022-10-22T00:02:26;40.43;;;21.80;;
17145;SDS011;8688;54.444;18.444;2022-10-22T00:04:53;38.60;;;21.23;;
17145;SDS011;8688;54.444;18.444;2022-10-22T00:07:21;37.80;;;20.60;;
17145;SDS011;8688;54.444;18.444;2022-10-22T00:09:49;38.40;;;21.87;;
17145;SDS011;8688;54.444;18.444;2022-10-22T00:12:17;38.70;;;21.53;;
17145;SDS011;8688;54.444;18.444;2022-10-22T00:14:44;38.43;;;21.00;;
17145;SDS011;8688;54.444;18.444;2022-10-22T00:17:14;36.63;;;21.27;;
17145;SDS011;8688;54.444;18.444;2022-10-22T00:19:41;37.37;;;20.60;;
17145;SDS011;8688;54.444;18.444;2022-10-22T00:22:10;34.87;;;19.97;;
17145;SDS011;8688;54.444;18.444;2022-10-22T00:24:38;37.67;;;20.17;;
17145;SDS011;8688;54.444;18.444;2022-10-22T00:27:06;38.23;;;20.33;;
17145;SDS011;8688;54.444;18.444;2022-10-22T00:29:34;34.70;;;19.90;;
17145;SDS011;8688;54.444;18.444;2022-10-22T00:32:02;35.60;;;20.77;;
17145;SDS011;8688;54.444;18.444;2022-10-22T00:34:32;37.73;;;20.47;;
17145;SDS011;8688;54.444;18.444;2022-10-22T00:36:59;42.07;;;21.10;;
17145;SDS011;8688;54.444;18.444;2022-10-22T00:39:27;37.77;;;20.97;;
17145;SDS011;8688;54.444;18.444;2022-10-22T00:41:55;39.97;;;21.03;;
17145;SDS011;8688;54.444;18.444;2022-10-22T00:47:29;36.67;;;20.93;;
17145;SDS011;8688;54.444;18.444;2022-10-22T00:50:00;38.07;;;20.50;;
17145;SDS011;8688;54.444;18.444;2022-10-22T00:52:29;38.30;;;21.03;;
17145;SDS011;8688;54.444;18.444;2022-10-22T00:54:56;36.30;;;20.40;;
17145;SDS011;8688;54.444;18.444;2022-10-22T00:57:23;38.57;;;20.70;;
17145;SDS011;8688;54.444;18.444;2022-10-22T00:59:51;41.40;;;21.53;;
17145;SDS011;8688;54.444;18.444;2022-10-22T01:02:19;37.07;;;20.73;;
17145;SDS011;8688;54.444;18.444;2022-10-22T01:04:47;34.30;;;20.83;;
17145;SDS011;8688;54.444;18.444;2022-10-22T01:07:18;40.37;;;19.97;;
17145;SDS011;8688;54.444;18.444;2022-10-22T01:09:50;38.43;;;19.73;;
17145;SDS011;8688;54.444;18.444;2022-10-22T01:12:27;39.13;;;21.23;;
17145;SDS011;8688;54.444;18.444;2022-10-22T01:15:06;34.73;;;21.77;;
17145;SDS011;8688;54.444;18.444;2022-10-22T01:17:40;33.53;;;20.57;;
17145;SDS011;8688;54.444;18.444;2022-10-22T01:20:17;40.67;;;20.23;;
17145;SDS011;8688;54.444;18.444;2022-10-22T01:23:08;36.13;;;20.43;;
17145;SDS011;8688;54.444;18.444;2022-10-22T01:25:48;37.40;;;20.43;;
17145;SDS011;8688;54.444;18.444;2022-10-22T01:28:25;40.67;;;21.63;;
17145;SDS011;8688;54.444;18.444;2022-10-22T01:31:13;35.03;;;20.23;;
17145;SDS011;8688;54.444;18.444;2022-10-22T01:33:43;36.63;;;20.73;;
17145;SDS011;8688;54.444;18.444;2022-10-22T01:36:13;43.17;;;22.57;;
17145;SDS011;8688;54.444;18.444;2022-10-22T01:38:41;36.13;;;21.17;;
17145;SDS011;8688;54.444;18.444;2022-10-22T01:41:10;40.30;;;22.63;;
17145;SDS011;8688;54.444;18.444;2022-10-22T01:43:37;40.37;;;20.77;;
17145;SDS011;8688;54.444;18.444;2022-10-22T01:46:05;38.30;;;21.80;;
17145;SDS011;8688;54.444;18.444;2022-10-22T01:48:37;33.73;;;21.20;;
17145;SDS011;8688;54.444;18.444;2022-10-22T01:51:21;40.83;;;21.53;;
17145;SDS011;8688;54.444;18.444;2022-10-22T01:53:57;40.93;;;22.90;;
17145;SDS011;8688;54.444;18.444;2022-10-22T01:56:30;38.43;;;21.67;;
17145;SDS011;8688;54.444;18.444;2022-10-22T01:59:08;36.07;;;22.03;;
17145;SDS011;8688;54.444;18.444;2022-10-22T02:01:46;36.13;;;21.93;;
17145;SDS011;8688;54.444;18.444;2022-10-22T02:04:21;39.80;;;21.00;;
17145;SDS011;8688;54.444;18.444;2022-10-22T02:06:53;38.47;;;20.50;;
17145;SDS011;8688;54.444;18.444;2022-10-22T02:09:25;39.60;;;21.60;;
17145;SDS011;8688;54.444;18.444;2022-10-22T02:11:56;40.07;;;21.57;;
17145;SDS011;8688;54.444;18.444;2022-10-22T02:14:26;36.93;;;21.67;;
17145;SDS011;8688;54.444;18.444;2022-10-22T02:16:56;36.57;;;21.07;;
17145;SDS011;8688;54.444;18.444;2022-10-22T02:19:27;38.87;;;21.17;;
17145;SDS011;8688;54.444;18.444;2022-10-22T02:22:01;35.43;;;22.03;;
17145;SDS011;8688;54.444;18.444;2022-10-22T02:24:29;37.60;;;22.50;;
17145;SDS011;8688;54.444;18.444;2022-10-22T02:26:58;37.07;;;22.27;;
17145;SDS011;8688;54.444;18.444;2022-10-22T02:29:34;42.57;;;21.67;;
17145;SDS011;8688;54.444;18.444;2022-10-22T02:32:05;34.27;;;21.03;;
17145;SDS011;8688;54.444;18.444;2022-10-22T02:34:36;36.07;;;21.20;;
17145;SDS011;8688;54.444;18.444;2022-10-22T02:37:04;38.47;;;21.87;;
17145;SDS011;8688;54.444;18.444;2022-10-22T02:39:32;39.10;;;22.80;;
17145;SDS011;8688;54.444;18.444;2022-10-22T02:42:01;39.43;;;22.73;;
17145;SDS011;8688;54.444;18.444;2022-10-22T02:44:29;41.63;;;22.07;;
17145;SDS011;8688;54.444;18.444;2022-10-22T02:46:57;41.17;;;22.80;;
17145;SDS011;8688;54.444;18.444;2022-10-22T02:49:25;36.77;;;21.20;;
17145;SDS011;8688;54.444;18.444;2022-10-22T02:51:54;37.17;;;21.90;;
17145;SDS011;8688;54.444;18.444;2022-10-22T02:54:22;35.97;;;21.83;;
17145;SDS011;8688;54.444;18.444;2022-10-22T02:56:49;39.57;;;20.97;;
17145;SDS011;8688;54.444;18.444;2022-10-22T02:59:17;37.43;;;21.43;;
17145;SDS011;8688;54.444;18.444;2022-10-22T03:01:44;39.50;;;22.10;;
17145;SDS011;8688;54.444;18.444;2022-10-22T03:04:11;39.83;;;22.83;;
17145;SDS011;8688;54.444;18.444;2022-10-22T03:06:39;39.73;;;21.97;;
17145;SDS011;8688;54.444;18.444;2022-10-22T03:09:09;37.83;;;22.83;;
17145;SDS011;8688;54.444;18.444;2022-10-22T03:11:37;37.50;;;22.70;;
17145;SDS011;8688;54.444;18.444;2022-10-22T03:14:04;39.70;;;22.37;;
17145;SDS011;8688;54.444;18.444;2022-10-22T03:16:32;45.13;;;23.93;;
17145;SDS011;8688;54.444;18.444;2022-10-22T03:18:59;37.17;;;21.30;;
17145;SDS011;8688;54.444;18.444;2022-10-22T03:21:29;39.97;;;22.20;;
17145;SDS011;8688;54.444;18.444;2022-10-22T03:24:01;38.30;;;21.83;;
17145;SDS011;8688;54.444;18.444;2022-10-22T03:26:34;40.70;;;22.93;;
17145;SDS011;8688;54.444;18.444;2022-10-22T03:29:02;38.93;;;21.63;;
17145;SDS011;8688;54.444;18.444;2022-10-22T03:31:30;40.17;;;22.40;;
17145;SDS011;8688;54.444;18.444;2022-10-22T03:33:58;40.33;;;22.03;;
17145;SDS011;8688;54.444;18.444;2022-10-22T03:36:25;36.83;;;21.27;;
17145;SDS011;8688;54.444;18.444;2022-10-22T03:38:53;40.57;;;22.47;;
17145;SDS011;8688;54.444;18.444;2022-10-22T03:41:20;40.47;;;22.40;;
17145;SDS011;8688;54.444;18.444;2022-10-22T03:43:50;40.83;;;22.20;;
17145;SDS011;8688;54.444;18.444;2022-10-22T03:46:18;46.23;;;22.93;;
17145;SDS011;8688;54.444;18.444;2022-10-22T03:48:45;39.97;;;22.53;;
17145;SDS011;8688;54.444;18.444;2022-10-22T03:51:13;40.37;;;21.50;;
17145;SDS011;8688;54.444;18.444;2022-10-22T03:53:40;42.87;;;22.27;;
17145;SDS011;8688;54.444;18.444;2022-10-22T03:56:07;34.37;;;20.87;;
17145;SDS011;8688;54.444;18.444;2022-10-22T03:58:35;40.73;;;22.83;;
17145;SDS011;8688;54.444;18.444;2022-10-22T04:01:05;36.17;;;22.17;;
17145;SDS011;8688;54.444;18.444;2022-10-22T04:03:34;40.73;;;22.40;;
17145;SDS011;8688;54.444;18.444;2022-10-22T04:06:01;38.20;;;22.37;;
17145;SDS011;8688;54.444;18.444;2022-10-22T04:08:30;40.37;;;22.47;;
17145;SDS011;8688;54.444;18.444;2022-10-22T04:10:57;39.27;;;22.13;;
17145;SDS011;8688;54.444;18.444;2022-10-22T04:13:25;38.37;;;23.33;;
17145;SDS011;8688;54.444;18.444;2022-10-22T04:15:52;42.10;;;23.27;;
17145;SDS011;8688;54.444;18.444;2022-10-22T04:18:21;36.50;;;22.23;;
17145;SDS011;8688;54.444;18.444;2022-10-22T04:20:50;39.07;;;21.93;;
17145;SDS011;8688;54.444;18.444;2022-10-22T04:23:18;37.30;;;21.83;;
17145;SDS011;8688;54.444;18.444;2022-10-22T04:25:45;38.40;;;23.27;;
17145;SDS011;8688;54.444;18.444;2022-10-22T04:28:12;37.87;;;22.20;;
17145;SDS011;8688;54.444;18.444;2022-10-22T04:30:40;35.63;;;21.03;;
17145;SDS011;8688;54.444;18.444;2022-10-22T04:33:07;41.07;;;22.07;;
17145;SDS011;8688;54.444;18.444;2022-10-22T04:35:38;37.83;;;21.70;;
17145;SDS011;8688;54.444;18.444;2022-10-22T04:38:05;37.03;;;21.30;;
17145;SDS011;8688;54.444;18.444;2022-10-22T04:40:32;42.40;;;21.80;;
17145;SDS011;8688;54.444;18.444;2022-10-22T04:43:00;41.03;;;23.30;;
17145;SDS011;8688;54.444;18.444;2022-10-22T04:45:27;42.90;;;22.93;;
17145;SDS011;8688;54.444;18.444;2022-10-22T04:47:55;40.10;;;23.00;;
17145;SDS011;8688;54.444;18.444;2022-10-22T04:50:22;40.23;;;22.73;;
17145;SDS011;8688;54.444;18.444;2022-10-22T04:52:51;39.27;;;22.43;;
17145;SDS011;8688;54.444;18.444;2022-10-22T04:55:19;38.80;;;22.47;;
17145;SDS011;8688;54.444;18.444;2022-10-22T04:57:46;37.03;;;22.60;;
17145;SDS011;8688;54.444;18.444;2022-10-22T05:00:13;42.90;;;23.90;;
17145;SDS011;8688;54.444;18.444;2022-10-22T05:02:41;40.33;;;23.47;;
17145;SDS011;8688;54.444;18.444;2022-10-22T05:05:09;41.93;;;22.63;;
17145;SDS011;8688;54.444;18.444;2022-10-22T05:07:37;39.47;;;22.17;;
17145;SDS011;8688;54.444;18.444;2022-10-22T05:10:06;38.00;;;22.30;;
17145;SDS011;8688;54.444;18.444;2022-10-22T05:12:34;41.97;;;22.30;;
17145;SDS011;8688;54.444;18.444;2022-10-22T05:15:02;38.03;;;22.23;;
17145;SDS011;8688;54.444;18.444;2022-10-22T05:17:29;37.73;;;23.10;;
17145;SDS011;8688;54.444;18.444;2022-10-22T05:19:56;44.13;;;23.03;;
17145;SDS011;8688;54.444;18.444;2022-10-22T05:22:24;37.63;;;22.73;;
17145;SDS011;8688;54.444;18.444;2022-10-22T05:24:51;38.70;;;22.97;;
17145;SDS011;8688;54.444;18.444;2022-10-22T05:27:20;36.90;;;22.30;;
17145;SDS011;8688;54.444;18.444;2022-10-22T05:29:47;36.37;;;22.73;;
17145;SDS011;8688;54.444;18.444;2022-10-22T05:32:15;39.43;;;22.50;;
17145;SDS011;8688;54.444;18.444;2022-10-22T05:34:42;40.73;;;23.20;;
17145;SDS011;8688;54.444;18.444;2022-10-22T05:37:09;40.70;;;21.27;;
17145;SDS011;8688;54.444;18.444;2022-10-22T05:39:37;42.03;;;23.63;;
17145;SDS011;8688;54.444;18.444;2022-10-22T05:42:05;42.50;;;25.17;;
17145;SDS011;8688;54.444;18.444;2022-10-22T05:44:34;40.87;;;23.80;;
17145;SDS011;8688;54.444;18.444;2022-10-22T05:47:03;41.33;;;23.90;;
17145;SDS011;8688;54.444;18.444;2022-10-22T05:49:30;40.27;;;23.40;;
17145;SDS011;8688;54.444;18.444;2022-10-22T05:51:58;43.80;;;24.20;;
17145;SDS011;8688;54.444;18.444;2022-10-22T05:54:25;41.90;;;25.03;;
17145;SDS011;8688;54.444;18.444;2022-10-22T05:56:52;44.40;;;24.33;;
17145;SDS011;8688;54.444;18.444;2022-10-22T05:59:20;45.87;;;25.30;;
17145;SDS011;8688;54.444;18.444;2022-10-22T06:01:48;42.57;;;24.80;;
17145;SDS011;8688;54.444;18.444;2022-10-22T06:04:16;44.93;;;24.40;;
17145;SDS011;8688;54.444;18.444;2022-10-22T06:06:44;44.77;;;24.70;;
17145;SDS011;8688;54.444;18.444;2022-10-22T06:09:13;43.23;;;24.20;;
17145;SDS011;8688;54.444;18.444;2022-10-22T06:11:43;44.27;;;25.20;;
17145;SDS011;8688;54.444;18.444;2022-10-22T06:14:11;43.33;;;26.03;;
17145;SDS011;8688;54.444;18.444;2022-10-22T06:16:38;42.50;;;25.63;;
17145;SDS011;8688;54.444;18.444;2022-10-22T06:19:09;46.27;;;26.70;;
17145;SDS011;8688;54.444;18.444;2022-10-22T06:21:38;44.73;;;25.53;;
17145;SDS011;8688;54.444;18.444;2022-10-22T06:24:06;47.43;;;25.50;;
17145;SDS011;8688;54.444;18.444;2022-10-22T06:26:34;43.90;;;25.77;;
17145;SDS011;8688;54.444;18.444;2022-10-22T06:29:02;47.27;;;25.27;;
17145;SDS011;8688;54.444;18.444;2022-10-22T06:31:29;44.17;;;25.17;;
17145;SDS011;8688;54.444;18.444;2022-10-22T06:34:01;39.30;;;24.07;;
17145;SDS011;8688;54.444;18.444;2022-10-22T06:36:30;48.43;;;25.13;;
17145;SDS011;8688;54.444;18.444;2022-10-22T06:38:57;44.90;;;25.00;;
17145;SDS011;8688;54.444;18.444;2022-10-22T06:41:25;42.67;;;24.50;;
17145;SDS011;8688;54.444;18.444;2022-10-22T06:43:52;44.60;;;24.80;;
17145;SDS011;8688;54.444;18.444;2022-10-22T06:46:20;45.23;;;26.00;;
17145;SDS011;8688;54.444;18.444;2022-10-22T06:48:49;48.10;;;25.77;;
17145;SDS011;8688;54.444;18.444;2022-10-22T06:51:18;49.22;;;25.90;;
17145;SDS011;8688;54.444;18.444;2022-10-22T06:53:47;42.25;;;25.08;;
17145;SDS011;8688;54.444;18.444;2022-10-22T06:56:15;57.28;;;30.52;;
17145;SDS011;8688;54.444;18.444;2022-10-22T06:58:45;56.05;;;28.77;;
17145;SDS011;8688;54.444;18.444;2022-10-22T07:01:14;73.03;;;39.72;;
17145;SDS011;8688;54.444;18.444;2022-10-22T07:03:42;49.50;;;30.25;;
17145;SDS011;8688;54.444;18.444;2022-10-22T07:06:10;45.03;;;27.10;;
17145;SDS011;8688;54.444;18.444;2022-10-22T07:08:39;50.10;;;27.35;;
17145;SDS011;8688;54.444;18.444;2022-10-22T07:11:09;42.53;;;25.98;;
17145;SDS011;8688;54.444;18.444;2022-10-22T07:13:38;49.15;;;26.77;;
17145;SDS011;8688;54.444;18.444;2022-10-22T07:16:06;43.85;;;26.02;;
17145;SDS011;8688;54.444;18.444;2022-10-22T07:18:35;46.83;;;25.95;;
17145;SDS011;8688;54.444;18.444;2022-10-22T07:21:03;43.63;;;26.75;;
17145;SDS011;8688;54.444;18.444;2022-10-22T07:23:31;44.42;;;26.92;;
17145;SDS011;8688;54.444;18.444;2022-10-22T07:25:59;42.42;;;25.92;;
17145;SDS011;8688;54.444;18.444;2022-10-22T07:28:29;45.28;;;26.38;;
17145;SDS011;8688;54.444;18.444;2022-10-22T07:30:57;42.58;;;27.52;;
17145;SDS011;8688;54.444;18.444;2022-10-22T07:33:25;45.53;;;26.15;;
17145;SDS011;8688;54.444;18.444;2022-10-22T07:35:56;45.93;;;25.33;;
17145;SDS011;8688;54.444;18.444;2022-10-22T07:38:23;45.67;;;25.85;;
17145;SDS011;8688;54.444;18.444;2022-10-22T07:40:51;50.08;;;30.95;;
17145;SDS011;8688;54.444;18.444;2022-10-22T07:43:18;51.95;;;32.35;;
17145;SDS011;8688;54.444;18.444;2022-10-22T07:45:47;50.75;;;29.63;;
17145;SDS011;8688;54.444;18.444;2022-10-22T07:48:15;45.25;;;27.60;;
17145;SDS011;8688;54.444;18.444;2022-10-22T07:50:42;44.55;;;26.63;;
17145;SDS011;8688;54.444;18.444;2022-10-22T07:53:10;48.38;;;27.38;;
17145;SDS011;8688;54.444;18.444;2022-10-22T07:55:37;50.93;;;31.00;;
17145;SDS011;8688;54.444;18.444;2022-10-22T07:58:05;42.30;;;25.90;;
17145;SDS011;8688;54.444;18.444;2022-10-22T08:00:32;46.77;;;27.07;;
17145;SDS011;8688;54.444;18.444;2022-10-22T08:03:03;44.35;;;27.30;;
17145;SDS011;8688;54.444;18.444;2022-10-22T08:05:30;43.70;;;26.73;;
17145;SDS011;8688;54.444;18.444;2022-10-22T08:07:58;49.53;;;28.75;;
17145;SDS011;8688;54.444;18.444;2022-10-22T08:10:26;50.35;;;31.13;;
17145;SDS011;8688;54.444;18.444;2022-10-22T08:12:53;45.90;;;27.35;;
17145;SDS011;8688;54.444;18.444;2022-10-22T08:15:20;45.33;;;27.17;;
17145;SDS011;8688;54.444;18.444;2022-10-22T08:17:49;45.30;;;27.10;;
17145;SDS011;8688;54.444;18.444;2022-10-22T08:20:18;46.47;;;29.13;;
17145;SDS011;8688;54.444;18.444;2022-10-22T08:22:46;45.58;;;28.50;;
17145;SDS011;8688;54.444;18.444;2022-10-22T08:25:13;46.42;;;27.67;;
17145;SDS011;8688;54.444;18.444;2022-10-22T08:27:42;49.63;;;29.27;;
17145;SDS011;8688;54.444;18.444;2022-10-22T08:30:10;44.95;;;27.40;;
17145;SDS011;8688;54.444;18.444;2022-10-22T08:32:38;47.85;;;28.85;;
17145;SDS011;8688;54.444;18.444;2022-10-22T08:35:06;43.92;;;27.77;;
17145;SDS011;8688;54.444;18.444;2022-10-22T08:37:35;44.08;;;27.10;;
17145;SDS011;8688;54.444;18.444;2022-10-22T08:40:03;48.88;;;30.95;;
17145;SDS011;8688;54.444;18.444;2022-10-22T08:42:36;44.08;;;27.50;;
17145;SDS011;8688;54.444;18.444;2022-10-22T08:45:17;49.05;;;26.60;;
17145;SDS011;8688;54.444;18.444;2022-10-22T08:47:57;46.88;;;27.48;;
17145;SDS011;8688;54.444;18.444;2022-10-22T08:50:32;43.65;;;25.83;;
17145;SDS011;8688;54.444;18.444;2022-10-22T08:53:04;47.28;;;26.95;;
17145;SDS011;8688;54.444;18.444;2022-10-22T08:55:38;45.42;;;27.58;;
17145;SDS011;8688;54.444;18.444;2022-10-22T08:58:07;45.83;;;28.20;;
17145;SDS011;8688;54.444;18.444;2022-10-22T09:00:44;50.97;;;28.98;;
17145;SDS011;8688;54.444;18.444;2022-10-22T09:03:20;53.70;;;30.10;;
17145;SDS011;8688;54.444;18.444;2022-10-22T09:06:08;44.42;;;28.42;;
17145;SDS011;8688;54.444;18.444;2022-10-22T09:08:39;46.63;;;27.77;;
17145;SDS011;8688;54.444;18.444;2022-10-22T09:11:14;45.22;;;27.75;;
17145;SDS011;8688;54.444;18.444;2022-10-22T09:13:48;50.00;;;29.75;;
17145;SDS011;8688;54.444;18.444;2022-10-22T09:16:18;51.10;;;30.05;;
17145;SDS011;8688;54.444;18.444;2022-10-22T09:18:54;50.72;;;30.25;;
17145;SDS011;8688;54.444;18.444;2022-10-22T09:21:30;54.45;;;31.02;;
17145;SDS011;8688;54.444;18.444;2022-10-22T09:24:08;52.72;;;30.70;;
17145;SDS011;8688;54.444;18.444;2022-10-22T09:26:38;49.15;;;30.15;;
17145;SDS011;8688;54.444;18.444;2022-10-22T09:29:11;56.72;;;30.75;;
17145;SDS011;8688;54.444;18.444;2022-10-22T09:31:43;51.38;;;29.80;;
17145;SDS011;8688;54.444;18.444;2022-10-22T09:34:12;53.28;;;29.75;;
17145;SDS011;8688;54.444;18.444;2022-10-22T09:36:40;49.85;;;29.50;;
17145;SDS011;8688;54.444;18.444;2022-10-22T09:39:22;50.83;;;28.67;;
17145;SDS011;8688;54.444;18.444;2022-10-22T09:41:51;53.15;;;28.15;;
17145;SDS011;8688;54.444;18.444;2022-10-22T09:44:18;55.58;;;30.52;;
17145;SDS011;8688;54.444;18.444;2022-10-22T09:46:46;57.88;;;30.35;;
17145;SDS011;8688;54.444;18.444;2022-10-22T09:49:13;55.22;;;30.50;;
17145;SDS011;8688;54.444;18.444;2022-10-22T09:51:48;50.72;;;29.13;;
17145;SDS011;8688;54.444;18.444;2022-10-22T09:54:17;51.60;;;28.52;;
17145;SDS011;8688;54.444;18.444;2022-10-22T09:56:51;53.55;;;30.13;;
17145;SDS011;8688;54.444;18.444;2022-10-22T09:59:24;48.67;;;27.77;;
17145;SDS011;8688;54.444;18.444;2022-10-22T10:01:59;54.88;;;29.80;;
17145;SDS011;8688;54.444;18.444;2022-10-22T10:04:31;52.53;;;27.98;;
17145;SDS011;8688;54.444;18.444;2022-10-22T10:07:01;49.10;;;27.05;;
17145;SDS011;8688;54.444;18.444;2022-10-22T10:09:29;50.20;;;25.75;;
17145;SDS011;8688;54.444;18.444;2022-10-22T10:12:05;49.92;;;26.17;;
17145;SDS011;8688;54.444;18.444;2022-10-22T10:14:42;43.88;;;24.23;;
17145;SDS011;8688;54.444;18.444;2022-10-22T10:17:22;40.25;;;23.25;;
17145;SDS011;8688;54.444;18.444;2022-10-22T10:20:00;42.83;;;23.63;;
17145;SDS011;8688;54.444;18.444;2022-10-22T10:22:40;43.28;;;23.27;;
17145;SDS011;8688;54.444;18.444;2022-10-22T10:25:20;40.65;;;22.05;;
17145;SDS011;8688;54.444;18.444;2022-10-22T10:28:12;36.92;;;21.60;;
17145;SDS011;8688;54.444;18.444;2022-10-22T10:30:53;40.13;;;23.27;;
17145;SDS011;8688;54.444;18.444;2022-10-22T10:33:27;41.20;;;23.33;;
17145;SDS011;8688;54.444;18.444;2022-10-22T10:36:05;43.75;;;24.60;;
17145;SDS011;8688;54.444;18.444;2022-10-22T10:38:40;45.70;;;24.38;;
17145;SDS011;8688;54.444;18.444;2022-10-22T10:41:16;41.90;;;23.80;;
17145;SDS011;8688;54.444;18.444;2022-10-22T10:44:00;42.42;;;24.00;;
17145;SDS011;8688;54.444;18.444;2022-10-22T10:46:45;35.45;;;21.08;;
17145;SDS011;8688;54.444;18.444;2022-10-22T10:49:19;35.17;;;20.23;;
17145;SDS011;8688;54.444;18.444;2022-10-22T10:51:52;37.53;;;20.35;;
17145;SDS011;8688;54.444;18.444;2022-10-22T10:54:33;38.92;;;19.48;;
17145;SDS011;8688;54.444;18.444;2022-10-22T10:57:10;35.78;;;18.80;;
17145;SDS011;8688;54.444;18.444;2022-10-22T10:59:59;37.10;;;20.20;;
17145;SDS011;8688;54.444;18.444;2022-10-22T11:05:30;35.25;;;19.52;;
17145;SDS011;8688;54.444;18.444;2022-10-22T11:08:06;31.77;;;18.65;;
17145;SDS011;8688;54.444;18.444;2022-10-22T11:10:38;31.85;;;17.67;;
17145;SDS011;8688;54.444;18.444;2022-10-22T11:13:11;31.98;;;18.33;;
17145;SDS011;8688;54.444;18.444;2022-10-22T11:15:47;31.23;;;17.73;;
17145;SDS011;8688;54.444;18.444;2022-10-22T11:18:23;32.00;;;17.88;;
17145;SDS011;8688;54.444;18.444;2022-10-22T11:21:02;31.70;;;17.33;;
17145;SDS011;8688;54.444;18.444;2022-10-22T11:23:38;32.83;;;16.92;;
17145;SDS011;8688;54.444;18.444;2022-10-22T11:26:11;32.28;;;17.55;;
17145;SDS011;8688;54.444;18.444;2022-10-22T11:28:44;28.27;;;16.90;;
17145;SDS011;8688;54.444;18.444;2022-10-22T11:31:18;31.40;;;16.70;;
17145;SDS011;8688;54.444;18.444;2022-10-22T11:33:51;30.35;;;16.13;;
17145;SDS011;8688;54.444;18.444;2022-10-22T11:36:23;29.75;;;15.88;;
17145;SDS011;8688;54.444;18.444;2022-10-22T11:38:53;30.70;;;16.10;;
17145;SDS011;8688;54.444;18.444;2022-10-22T11:41:26;32.83;;;16.48;;
17145;SDS011;8688;54.444;18.444;2022-10-22T11:44:04;31.70;;;16.48;;
17145;SDS011;8688;54.444;18.444;2022-10-22T11:46:44;31.52;;;16.80;;
17145;SDS011;8688;54.444;18.444;2022-10-22T11:49:24;30.63;;;16.45;;
17145;SDS011;8688;54.444;18.444;2022-10-22T11:55:00;35.88;;;16.60;;
17145;SDS011;8688;54.444;18.444;2022-10-22T11:57:29;33.25;;;16.33;;
17145;SDS011;8688;54.444;18.444;2022-10-22T12:00:06;29.30;;;15.85;;
17145;SDS011;8688;54.444;18.444;2022-10-22T12:02:39;34.53;;;16.42;;
17145;SDS011;8688;54.444;18.444;2022-10-22T12:05:17;31.83;;;17.13;;
17145;SDS011;8688;54.444;18.444;2022-10-22T12:07:50;38.20;;;17.52;;
17145;SDS011;8688;54.444;18.444;2022-10-22T12:10:24;37.65;;;18.00;;
17145;SDS011;8688;54.444;18.444;2022-10-22T12:12:54;37.70;;;18.25;;
17145;SDS011;8688;54.444;18.444;2022-10-22T12:15:25;39.25;;;18.73;;
17145;SDS011;8688;54.444;18.444;2022-10-22T12:17:57;37.15;;;16.83;;
17145;SDS011;8688;54.444;18.444;2022-10-22T12:20:26;36.92;;;17.27;;
17145;SDS011;8688;54.444;18.444;2022-10-22T12:22:54;37.08;;;18.48;;
17145;SDS011;8688;54.444;18.444;2022-10-22T12:25:23;39.05;;;19.33;;
17145;SDS011;8688;54.444;18.444;2022-10-22T12:27:52;39.85;;;18.23;;
17145;SDS011;8688;54.444;18.444;2022-10-22T12:30:22;45.08;;;19.23;;
17145;SDS011;8688;54.444;18.444;2022-10-22T12:32:50;42.92;;;19.85;;
17145;SDS011;8688;54.444;18.444;2022-10-22T12:35:22;49.90;;;21.17;;
17145;SDS011;8688;54.444;18.444;2022-10-22T12:37:53;46.20;;;19.80;;
17145;SDS011;8688;54.444;18.444;2022-10-22T12:40:22;48.55;;;21.42;;
17145;SDS011;8688;54.444;18.444;2022-10-22T12:42:52;54.83;;;23.20;;
17145;SDS011;8688;54.444;18.444;2022-10-22T12:45:20;51.40;;;21.67;;
17145;SDS011;8688;54.444;18.444;2022-10-22T12:47:54;57.03;;;23.95;;
17145;SDS011;8688;54.444;18.444;2022-10-22T12:50:28;57.92;;;24.17;;
17145;SDS011;8688;54.444;18.444;2022-10-22T12:53:01;60.17;;;24.67;;
17145;SDS011;8688;54.444;18.444;2022-10-22T12:55:30;59.90;;;24.40;;
17145;SDS011;8688;54.444;18.444;2022-10-22T12:57:59;53.40;;;24.30;;
17145;SDS011;8688;54.444;18.444;2022-10-22T13:00:31;61.47;;;26.15;;
17145;SDS011;8688;54.444;18.444;2022-10-22T13:03:02;61.10;;;25.67;;
17145;SDS011;8688;54.444;18.444;2022-10-22T13:05:33;61.05;;;27.02;;
17145;SDS011;8688;54.444;18.444;2022-10-22T13:08:04;62.72;;;27.13;;
17145;SDS011;8688;54.444;18.444;2022-10-22T13:10:36;61.88;;;27.13;;
17145;SDS011;8688;54.444;18.444;2022-10-22T13:13:05;60.45;;;27.10;;
17145;SDS011;8688;54.444;18.444;2022-10-22T13:15:35;62.13;;;27.08;;
17145;SDS011;8688;54.444;18.444;2022-10-22T13:18:05;63.35;;;28.10;;
17145;SDS011;8688;54.444;18.444;2022-10-22T13:20:50;65.47;;;28.40;;
17145;SDS011;8688;54.444;18.444;2022-10-22T13:23:19;66.35;;;28.15;;
17145;SDS011;8688;54.444;18.444;2022-10-22T13:25:59;65.72;;;29.15;;
17145;SDS011;8688;54.444;18.444;2022-10-22T13:28:29;66.05;;;28.35;;
17145;SDS011;8688;54.444;18.444;2022-10-22T13:30:58;69.47;;;29.85;;
17145;SDS011;8688;54.444;18.444;2022-10-22T13:33:28;69.80;;;28.60;;
17145;SDS011;8688;54.444;18.444;2022-10-22T13:36:01;61.60;;;28.27;;
17145;SDS011;8688;54.444;18.444;2022-10-22T13:38:29;69.32;;;29.77;;
17145;SDS011;8688;54.444;18.444;2022-10-22T13:40:56;67.75;;;28.08;;
17145;SDS011;8688;54.444;18.444;2022-10-22T13:43:24;70.78;;;28.98;;
17145;SDS011;8688;54.444;18.444;2022-10-22T13:45:52;65.13;;;26.13;;
17145;SDS011;8688;54.444;18.444;2022-10-22T13:48:23;72.38;;;28.55;;
17145;SDS011;8688;54.444;18.444;2022-10-22T13:50:51;76.88;;;27.58;;
17145;SDS011;8688;54.444;18.444;2022-10-22T13:53:21;110.10;;;33.15;;
17145;SDS011;8688;54.444;18.444;2022-10-22T13:55:51;107.70;;;33.17;;
17145;SDS011;8688;54.444;18.444;2022-10-22T13:58:19;82.07;;;28.75;;
17145;SDS011;8688;54.444;18.444;2022-10-22T14:00:49;73.07;;;27.50;;
17145;SDS011;8688;54.444;18.444;2022-10-22T14:03:20;57.85;;;24.73;;
17145;SDS011;8688;54.444;18.444;2022-10-22T14:05:50;60.22;;;24.33;;
17145;SDS011;8688;54.444;18.444;2022-10-22T14:08:18;60.17;;;25.02;;
17145;SDS011;8688;54.444;18.444;2022-10-22T14:10:49;60.67;;;24.88;;
17145;SDS011;8688;54.444;18.444;2022-10-22T14:13:18;57.47;;;23.10;;
17145;SDS011;8688;54.444;18.444;2022-10-22T14:15:47;61.30;;;23.52;;
17145;SDS011;8688;54.444;18.444;2022-10-22T14:18:17;56.75;;;23.25;;
17145;SDS011;8688;54.444;18.444;2022-10-22T14:20:50;61.40;;;23.83;;
17145;SDS011;8688;54.444;18.444;2022-10-22T14:23:19;67.90;;;28.98;;
17145;SDS011;8688;54.444;18.444;2022-10-22T14:25:50;63.78;;;26.80;;
17145;SDS011;8688;54.444;18.444;2022-10-22T14:28:17;63.80;;;25.08;;
17145;SDS011;8688;54.444;18.444;2022-10-22T14:30:45;62.40;;;25.23;;
17145;SDS011;8688;54.444;18.444;2022-10-22T14:33:14;59.97;;;23.77;;
17145;SDS011;8688;54.444;18.444;2022-10-22T14:35:44;64.95;;;27.52;;
17145;SDS011;8688;54.444;18.444;2022-10-22T14:38:12;66.20;;;26.42;;
17145;SDS011;8688;54.444;18.444;2022-10-22T14:40:41;56.45;;;23.25;;
17145;SDS011;8688;54.444;18.444;2022-10-22T14:43:10;60.72;;;23.33;;
17145;SDS011;8688;54.444;18.444;2022-10-22T14:45:39;55.92;;;23.73;;
17145;SDS011;8688;54.444;18.444;2022-10-22T14:48:07;54.42;;;22.85;;
17145;SDS011;8688;54.444;18.444;2022-10-22T14:50:34;56.33;;;26.25;;